Time;durP1;ratioP1;P1;durP2;ratioP2;P2;SDS_P1;SDS_P2;PMS_P1;PMS_P2;Temp;Humidity;BMP_temperature;BMP_pressure;BME280_temperature;BME280_humidity;BME280_pressure;Samples;Min_cycle;Max_cycle;Signal;HPM_P1;HPM_P2
2021/07/01 00:01:51;;;;;;;13.13;2.50;;;;;;;;;;6095185;29;20060;-73
2021/07/01 00:04:53;;;;;;;14.20;2.70;;;;;;;;;;6091456;29;20049;-71
2021/07/01 00:07:54;;;;;;;11.00;2.00;;;;;;;;;;6100084;29;20600;-70
2021/07/01 00:10:56;;;;;;;9.85;2.38;;;;;;;;;;6091051;29;20068;-70
2021/07/01 00:13:57;;;;;;;9.85;2.53;;;;;;;;;;6091658;29;20255;-73
2021/07/01 00:17:00;;;;;;;13.27;2.83;;;;;;;;;;6093780;29;20115;-72
2021/07/01 00:20:02;;;;;;;7.32;1.90;;;;;;;;;;6087397;29;20705;-70
2021/07/01 00:23:04;;;;;;;11.75;2.75;;;;;;;;;;6096996;29;20105;-70
2021/07/01 00:26:05;;;;;;;12.32;2.28;;;;;;;;;;6093232;29;20568;-72
2021/07/01 00:29:07;;;;;;;10.77;1.92;;;;;;;;;;6097339;29;20572;-72
2021/07/01 00:32:10;;;;;;;8.43;2.15;;;;;;;;;;6059305;29;1115118;-72
2021/07/01 00:35:13;;;;;;;12.13;2.42;;;;;;;;;;6096252;29;20108;-73
2021/07/01 00:38:14;;;;;;;17.83;2.10;;;;;;;;;;6104231;29;20080;-74
2021/07/01 00:41:16;;;;;;;6.65;1.80;;;;;;;;;;6097624;29;20119;-71
2021/07/01 00:44:18;;;;;;;9.73;2.53;;;;;;;;;;6094545;29;20213;-71
2021/07/01 00:47:21;;;;;;;11.88;2.50;;;;;;;;;;6091459;29;20115;-72
2021/07/01 00:50:24;;;;;;;10.60;3.35;;;;;;;;;;6089506;29;20075;-72
2021/07/01 00:53:26;;;;;;;11.32;2.25;;;;;;;;;;6097204;29;20233;-73
2021/07/01 00:56:28;;;;;;;16.27;2.60;;;;;;;;;;6097637;29;20142;-72
2021/07/01 00:59:31;;;;;;;11.10;3.03;;;;;;;;;;6090657;29;20181;-72
2021/07/01 01:02:34;;;;;;;13.90;3.10;;;;;;;;;;6086788;29;20103;-71
2021/07/01 01:05:36;;;;;;;13.27;2.42;;;;;;;;;;6086607;29;20464;-73
2021/07/01 01:08:39;;;;;;;16.35;4.28;;;;;;;;;;6092328;29;20135;-72
2021/07/01 01:11:41;;;;;;;10.82;2.20;;;;;;;;;;6095127;29;20045;-72
2021/07/01 01:14:42;;;;;;;11.75;2.17;;;;;;;;;;6090026;29;20553;-73
2021/07/01 01:17:45;;;;;;;17.90;2.60;;;;;;;;;;6090224;29;20129;-72
2021/07/01 01:20:47;;;;;;;9.10;2.55;;;;;;;;;;6097272;29;20053;-70
2021/07/01 01:23:50;;;;;;;12.45;2.10;;;;;;;;;;6097771;29;20044;-71
2021/07/01 01:26:52;;;;;;;17.95;2.28;;;;;;;;;;6099680;29;20055;-72
2021/07/01 01:29:54;;;;;;;14.52;2.65;;;;;;;;;;6087768;29;20192;-73
2021/07/01 01:32:55;;;;;;;10.20;2.35;;;;;;;;;;6088962;29;20200;-73
2021/07/01 01:35:57;;;;;;;11.88;2.63;;;;;;;;;;6098009;29;20195;-73
2021/07/01 01:39:00;;;;;;;11.45;2.35;;;;;;;;;;6102937;29;20600;-72
2021/07/01 01:42:02;;;;;;;12.20;3.00;;;;;;;;;;6094292;29;20557;-74
2021/07/01 01:45:04;;;;;;;9.65;1.80;;;;;;;;;;6098829;29;20131;-76
2021/07/01 01:48:06;;;;;;;8.95;2.15;;;;;;;;;;6095322;29;20493;-75
2021/07/01 01:51:08;;;;;;;11.95;2.15;;;;;;;;;;6095848;29;20056;-75
2021/07/01 01:54:11;;;;;;;9.18;2.13;;;;;;;;;;6107135;29;20143;-75
2021/07/01 01:57:12;;;;;;;10.27;2.63;;;;;;;;;;6101098;29;20076;-75
2021/07/01 02:00:16;;;;;;;10.13;2.72;;;;;;;;;;6098194;29;20048;-76
2021/07/01 02:03:17;;;;;;;11.50;3.03;;;;;;;;;;6098574;29;20122;-74
2021/07/01 02:06:19;;;;;;;11.88;2.35;;;;;;;;;;6104486;29;20051;-75
2021/07/01 02:09:22;;;;;;;11.38;2.28;;;;;;;;;;6103903;29;20072;-74
2021/07/01 02:12:24;;;;;;;12.93;2.28;;;;;;;;;;6094091;29;20109;-75
2021/07/01 02:15:26;;;;;;;8.43;2.25;;;;;;;;;;6098042;29;20112;-75
2021/07/01 02:18:27;;;;;;;10.68;2.20;;;;;;;;;;6100349;29;20512;-74
2021/07/01 02:21:29;;;;;;;8.75;2.15;;;;;;;;;;6101352;29;20076;-77
2021/07/01 02:24:32;;;;;;;11.70;3.13;;;;;;;;;;6095973;29;20091;-75
2021/07/01 02:27:34;;;;;;;10.48;2.30;;;;;;;;;;6102840;29;20221;-78
2021/07/01 02:30:36;;;;;;;11.38;2.67;;;;;;;;;;6103244;29;20134;-75
2021/07/01 02:33:37;;;;;;;9.07;2.15;;;;;;;;;;6100059;29;20043;-75
2021/07/01 02:36:39;;;;;;;10.90;2.53;;;;;;;;;;6101308;29;20072;-76
2021/07/01 02:39:42;;;;;;;12.90;2.97;;;;;;;;;;6109410;29;20879;-75
2021/07/01 02:42:44;;;;;;;10.98;2.08;;;;;;;;;;6095121;29;20191;-79
2021/07/01 02:45:45;;;;;;;12.13;2.25;;;;;;;;;;6100974;29;20127;-75
2021/07/01 02:48:47;;;;;;;9.52;2.08;;;;;;;;;;6105498;29;20184;-75
2021/07/01 02:51:48;;;;;;;12.38;2.20;;;;;;;;;;6092747;29;20072;-77
2021/07/01 02:54:51;;;;;;;13.50;2.90;;;;;;;;;;6103488;29;20100;-75
2021/07/01 02:57:53;;;;;;;7.43;2.20;;;;;;;;;;6098805;29;20130;-75
2021/07/01 03:00:54;;;;;;;12.23;2.25;;;;;;;;;;6099441;29;20139;-75
2021/07/01 03:03:56;;;;;;;9.23;2.00;;;;;;;;;;6098065;29;20048;-75
2021/07/01 03:06:58;;;;;;;12.00;2.17;;;;;;;;;;6089575;29;20198;-75
2021/07/01 03:10:01;;;;;;;13.63;3.20;;;;;;;;;;6094694;29;20104;-75
2021/07/01 03:13:02;;;;;;;10.27;2.45;;;;;;;;;;6096223;29;20051;-76
2021/07/01 03:16:04;;;;;;;10.52;2.40;;;;;;;;;;6098771;29;20135;-76
2021/07/01 03:19:06;;;;;;;10.60;2.00;;;;;;;;;;6097178;29;20114;-75
2021/07/01 03:22:08;;;;;;;10.23;2.28;;;;;;;;;;6098495;29;20131;-75
2021/07/01 03:25:12;;;;;;;13.10;2.55;;;;;;;;;;6101005;29;20075;-79
2021/07/01 03:28:13;;;;;;;10.45;2.30;;;;;;;;;;6102475;29;20047;-75
2021/07/01 03:31:15;;;;;;;9.00;2.78;;;;;;;;;;6093943;29;20127;-79
2021/07/01 03:34:16;;;;;;;10.45;2.85;;;;;;;;;;6098097;29;20938;-76
2021/07/01 03:37:18;;;;;;;11.95;2.20;;;;;;;;;;6103381;29;20176;-76
2021/07/01 03:40:21;;;;;;;11.82;2.72;;;;;;;;;;6102915;29;20056;-77
2021/07/01 03:43:22;;;;;;;8.98;2.20;;;;;;;;;;6110304;29;20161;-76
2021/07/01 03:46:25;;;;;;;12.20;2.80;;;;;;;;;;6098504;29;20119;-75
2021/07/01 03:49:27;;;;;;;18.30;2.90;;;;;;;;;;6100983;29;20360;-75
2021/07/01 03:52:29;;;;;;;8.90;2.30;;;;;;;;;;6108074;29;20524;-76
2021/07/01 03:55:32;;;;;;;13.05;2.22;;;;;;;;;;6099986;29;20099;-80
2021/07/01 03:58:34;;;;;;;10.95;2.10;;;;;;;;;;6096685;29;20055;-76
2021/07/01 04:01:36;;;;;;;13.10;2.50;;;;;;;;;;6100280;29;20112;-72
2021/07/01 04:04:37;;;;;;;12.52;2.78;;;;;;;;;;6091177;29;20037;-75
2021/07/01 04:07:39;;;;;;;11.27;2.83;;;;;;;;;;6102355;29;20052;-73
2021/07/01 04:10:42;;;;;;;10.85;2.20;;;;;;;;;;6093833;29;20080;-72
2021/07/01 04:13:44;;;;;;;13.10;3.08;;;;;;;;;;6095527;29;20377;-72
2021/07/01 04:16:46;;;;;;;7.50;2.45;;;;;;;;;;6094295;29;20048;-72
2021/07/01 04:19:47;;;;;;;13.38;2.20;;;;;;;;;;6105979;29;20137;-73
2021/07/01 04:22:49;;;;;;;11.45;2.50;;;;;;;;;;6097315;29;20080;-71
2021/07/01 04:25:55;;;;;;;15.32;2.97;;;;;;;;;;6092359;29;20111;-72
2021/07/01 04:28:57;;;;;;;14.10;2.58;;;;;;;;;;6090339;29;20102;-72
2021/07/01 04:31:59;;;;;;;11.65;2.85;;;;;;;;;;6090867;29;20052;-73
2021/07/01 04:35:01;;;;;;;10.25;2.63;;;;;;;;;;6092236;29;20135;-72
2021/07/01 04:38:02;;;;;;;12.20;2.42;;;;;;;;;;6094288;29;20484;-73
2021/07/01 04:41:05;;;;;;;12.85;2.50;;;;;;;;;;6091561;29;20143;-74
2021/07/01 04:44:08;;;;;;;11.60;2.30;;;;;;;;;;6087562;29;20131;-74
2021/07/01 04:47:11;;;;;;;8.95;2.25;;;;;;;;;;6095566;29;20473;-72
2021/07/01 04:50:13;;;;;;;12.80;2.60;;;;;;;;;;6094294;29;20171;-74
2021/07/01 04:53:14;;;;;;;11.38;2.78;;;;;;;;;;6089407;29;20048;-75
2021/07/01 04:56:17;;;;;;;9.27;2.30;;;;;;;;;;6091288;29;20535;-74
2021/07/01 04:59:20;;;;;;;10.98;2.30;;;;;;;;;;6091362;29;20135;-74
2021/07/01 05:02:22;;;;;;;15.32;2.17;;;;;;;;;;6093576;29;20056;-75
2021/07/01 05:05:23;;;;;;;13.43;2.53;;;;;;;;;;6089667;29;20052;-76
2021/07/01 05:08:25;;;;;;;10.32;2.80;;;;;;;;;;6090021;29;20143;-79
2021/07/01 05:11:29;;;;;;;14.30;2.63;;;;;;;;;;6090258;29;20060;-74
2021/07/01 05:14:31;;;;;;;14.18;2.90;;;;;;;;;;6087572;29;20053;-73
2021/07/01 05:17:33;;;;;;;17.10;3.42;;;;;;;;;;6089217;29;20049;-73
2021/07/01 05:20:35;;;;;;;14.20;2.88;;;;;;;;;;6104224;29;20099;-72
2021/07/01 05:23:36;;;;;;;12.82;2.58;;;;;;;;;;6094429;29;20196;-72
2021/07/01 05:26:39;;;;;;;6.65;2.60;;;;;;;;;;6092943;29;20134;-71
2021/07/01 05:29:41;;;;;;;14.23;3.13;;;;;;;;;;6096069;29;20187;-73
2021/07/01 05:32:42;;;;;;;10.63;2.72;;;;;;;;;;6086110;29;21037;-73
2021/07/01 05:35:45;;;;;;;13.10;3.55;;;;;;;;;;6085497;29;20504;-74
2021/07/01 05:38:53;;;;;;;11.87;3.60;;;;;;;;;;6096737;29;20485;-71
2021/07/01 05:41:56;;;;;;;15.40;2.95;;;;;;;;;;6083221;29;20072;-72
2021/07/01 05:44:58;;;;;;;9.77;2.97;;;;;;;;;;6088157;29;20480;-73
2021/07/01 05:47:59;;;;;;;13.13;2.47;;;;;;;;;;6088505;29;20570;-77
2021/07/01 05:51:03;;;;;;;17.83;3.70;;;;;;;;;;6088177;29;20124;-74
2021/07/01 05:54:10;;;;;;;13.88;2.60;;;;;;;;;;6092826;29;20056;-75
2021/07/01 05:57:13;;;;;;;12.75;3.03;;;;;;;;;;6089747;29;20064;-74
2021/07/01 06:00:17;;;;;;;14.70;3.13;;;;;;;;;;6084938;29;20064;-73
2021/07/01 06:03:19;;;;;;;12.95;2.75;;;;;;;;;;6085346;29;20472;-72
2021/07/01 06:06:20;;;;;;;9.55;2.80;;;;;;;;;;6085138;29;20143;-73
2021/07/01 06:09:23;;;;;;;16.10;2.55;;;;;;;;;;6087774;29;20052;-73
2021/07/01 06:12:30;;;;;;;10.50;2.70;;;;;;;;;;6082100;29;20106;-74
2021/07/01 06:15:33;;;;;;;8.43;2.38;;;;;;;;;;6089560;29;20632;-74
2021/07/01 06:18:34;;;;;;;9.43;2.30;;;;;;;;;;6084547;29;22530;-73
2021/07/01 06:21:36;;;;;;;11.32;2.40;;;;;;;;;;6088621;29;20052;-73
2021/07/01 06:24:37;;;;;;;8.00;2.08;;;;;;;;;;6085545;29;20111;-75
2021/07/01 06:27:40;;;;;;;14.18;3.15;;;;;;;;;;6092878;29;21390;-75
2021/07/01 06:30:43;;;;;;;10.27;2.33;;;;;;;;;;6080328;29;20060;-73
2021/07/01 06:33:45;;;;;;;8.85;2.45;;;;;;;;;;6084448;29;20044;-74
2021/07/01 06:36:49;;;;;;;9.50;2.72;;;;;;;;;;6084797;29;20080;-72
2021/07/01 06:39:51;;;;;;;16.70;2.30;;;;;;;;;;6090320;29;20148;-76
2021/07/01 06:42:56;;;;;;;10.15;2.00;;;;;;;;;;6090119;29;20122;-74
2021/07/01 06:45:58;;;;;;;9.98;2.50;;;;;;;;;;6090072;29;20119;-74
2021/07/01 06:49:01;;;;;;;10.43;2.30;;;;;;;;;;6092064;29;20044;-77
2021/07/01 06:52:05;;;;;;;9.33;2.53;;;;;;;;;;6089554;29;20069;-74
2021/07/01 06:55:07;;;;;;;14.88;2.70;;;;;;;;;;6093525;29;20628;-74
2021/07/01 06:58:11;;;;;;;10.13;2.42;;;;;;;;;;6097803;29;20437;-74
2021/07/01 07:01:12;;;;;;;11.27;2.67;;;;;;;;;;6095899;29;20420;-74
2021/07/01 07:04:16;;;;;;;16.17;2.78;;;;;;;;;;6091607;29;20396;-73
2021/07/01 07:07:17;;;;;;;12.43;3.25;;;;;;;;;;6094958;29;20778;-73
2021/07/01 07:10:20;;;;;;;12.70;2.08;;;;;;;;;;6095792;29;20207;-75
2021/07/01 07:13:25;;;;;;;9.35;2.72;;;;;;;;;;6091586;29;20056;-75
2021/07/01 07:16:27;;;;;;;10.93;2.40;;;;;;;;;;6088621;29;20048;-72
2021/07/01 07:19:30;;;;;;;9.60;2.20;;;;;;;;;;6080216;29;20052;-73
2021/07/01 07:22:35;;;;;;;9.63;2.33;;;;;;;;;;6083817;29;20135;-72
2021/07/01 07:25:39;;;;;;;16.35;2.42;;;;;;;;;;6092638;29;20049;-72
2021/07/01 07:28:44;;;;;;;16.52;2.72;;;;;;;;;;6092044;29;20143;-74
2021/07/01 07:31:46;;;;;;;7.70;2.35;;;;;;;;;;6090891;29;20117;-74
2021/07/01 07:34:49;;;;;;;10.43;2.60;;;;;;;;;;6092263;29;20656;-74
2021/07/01 07:37:51;;;;;;;10.27;2.55;;;;;;;;;;6091953;29;20052;-75
2021/07/01 07:40:53;;;;;;;13.18;2.60;;;;;;;;;;6089720;29;20048;-74
2021/07/01 07:43:56;;;;;;;12.85;2.50;;;;;;;;;;6091168;29;20048;-74
2021/07/01 07:46:58;;;;;;;11.68;2.53;;;;;;;;;;6087155;29;20456;-74
2021/07/01 07:50:00;;;;;;;10.67;2.57;;;;;;;;;;6092658;29;20048;-75
2021/07/01 07:53:02;;;;;;;12.65;2.70;;;;;;;;;;6094266;29;20070;-74
2021/07/01 07:56:05;;;;;;;11.13;2.45;;;;;;;;;;6088966;29;20056;-75
2021/07/01 07:59:10;;;;;;;13.10;3.00;;;;;;;;;;6092609;29;21703;-74
2021/07/01 08:02:24;;;;;;;9.18;2.95;;;;;;;;;;6095862;29;20118;-75
2021/07/01 08:05:28;;;;;;;15.98;3.72;;;;;;;;;;6088177;29;20149;-74
2021/07/01 08:08:31;;;;;;;6.18;2.00;;;;;;;;;;6084448;29;20099;-73
2021/07/01 08:11:34;;;;;;;12.30;2.95;;;;;;;;;;6082777;29;20049;-74
2021/07/01 08:14:42;;;;;;;7.55;2.38;;;;;;;;;;6085135;29;20148;-74
2021/07/01 08:17:44;;;;;;;5.57;1.83;;;;;;;;;;6088560;29;20047;-74
2021/07/01 08:20:45;;;;;;;11.57;2.50;;;;;;;;;;6091960;29;20063;-74
2021/07/01 08:23:47;;;;;;;12.73;2.40;;;;;;;;;;6092193;29;20098;-75
2021/07/01 08:26:51;;;;;;;9.70;2.40;;;;;;;;;;6091461;29;20192;-74
2021/07/01 08:29:54;;;;;;;10.15;2.60;;;;;;;;;;6086660;29;20100;-74
2021/07/01 08:32:56;;;;;;;;;;;;;;;;;;6085342;29;20062;-75
2021/07/01 08:36:00;;;;;;;10.60;2.60;;;;;;;;;;6082713;29;19959;-73
2021/07/01 08:39:02;;;;;;;7.75;2.45;;;;;;;;;;6088363;29;20201;-74
2021/07/01 08:42:07;;;;;;;6.47;2.20;;;;;;;;;;6088405;29;20559;-74
2021/07/01 08:45:13;;;;;;;7.68;2.33;;;;;;;;;;6085150;29;20135;-74
2021/07/01 08:48:21;;;;;;;9.38;1.63;;;;;;;;;;6085438;29;20270;-75
2021/07/01 08:51:28;;;;;;;10.63;2.38;;;;;;;;;;6085930;29;20079;-74
2021/07/01 08:54:33;;;;;;;10.85;2.47;;;;;;;;;;6079572;29;20135;-75
2021/07/01 08:57:36;;;;;;;9.68;2.30;;;;;;;;;;6088786;29;20043;-74
2021/07/01 09:00:40;;;;;;;10.52;2.45;;;;;;;;;;6089308;29;20052;-77
2021/07/01 09:03:44;;;;;;;8.80;2.97;;;;;;;;;;6088371;29;20060;-74
2021/07/01 09:06:49;;;;;;;5.47;2.20;;;;;;;;;;6086431;29;20093;-74
2021/07/01 09:09:55;;;;;;;6.75;2.30;;;;;;;;;;6082339;29;20117;-74
2021/07/01 09:12:58;;;;;;;9.77;2.03;;;;;;;;;;6084572;29;20135;-75
2021/07/01 09:16:01;;;;;;;10.50;2.33;;;;;;;;;;6093517;29;20495;-72
2021/07/01 09:19:04;;;;;;;9.98;2.30;;;;;;;;;;6095405;29;20134;-75
2021/07/01 09:22:10;;;;;;;8.98;2.13;;;;;;;;;;6082040;29;20103;-74
2021/07/01 09:25:13;;;;;;;8.38;1.75;;;;;;;;;;6083522;29;20059;-74
2021/07/01 09:28:14;;;;;;;8.82;2.25;;;;;;;;;;6084405;29;20505;-74
2021/07/01 09:31:20;;;;;;;7.00;2.25;;;;;;;;;;6086942;29;20068;-74
2021/07/01 09:34:21;;;;;;;7.93;2.33;;;;;;;;;;6077223;29;20135;-73
2021/07/01 09:37:23;;;;;;;8.65;1.85;;;;;;;;;;6079954;29;20115;-72
2021/07/01 09:40:25;;;;;;;9.48;2.22;;;;;;;;;;6084165;29;20197;-73
2021/07/01 09:43:28;;;;;;;19.00;2.73;;;;;;;;;;6081534;29;20048;-68
2021/07/01 09:46:33;;;;;;;11.65;2.00;;;;;;;;;;6080194;29;20146;-73
2021/07/01 09:49:36;;;;;;;4.10;1.63;;;;;;;;;;6085599;29;20064;-74
2021/07/01 09:52:41;;;;;;;6.53;1.63;;;;;;;;;;6086753;29;20092;-76
2021/07/01 09:55:44;;;;;;;8.00;1.90;;;;;;;;;;6079206;29;20056;-74
2021/07/01 09:58:49;;;;;;;6.05;2.20;;;;;;;;;;6081619;29;20071;-73
2021/07/01 10:01:52;;;;;;;4.95;1.80;;;;;;;;;;6079839;29;20052;-73
2021/07/01 10:04:53;;;;;;;5.32;1.45;;;;;;;;;;6079789;29;20176;-76
2021/07/01 10:07:55;;;;;;;3.13;1.35;;;;;;;;;;6079507;29;20048;-74
2021/07/01 10:10:57;;;;;;;9.40;1.55;;;;;;;;;;6081509;29;20187;-73
2021/07/01 10:14:00;;;;;;;5.18;1.48;;;;;;;;;;6078668;29;20168;-75
2021/07/01 10:17:10;;;;;;;6.57;2.22;;;;;;;;;;6084448;29;20061;-73
2021/07/01 10:20:12;;;;;;;3.63;1.23;;;;;;;;;;6089157;29;20120;-72
2021/07/01 10:23:20;;;;;;;3.03;1.33;;;;;;;;;;6092492;29;20727;-75
2021/07/01 10:26:23;;;;;;;5.07;1.38;;;;;;;;;;6094134;29;20040;-75
2021/07/01 10:29:36;;;;;;;4.07;1.73;;;;;;;;;;6094036;29;20180;-71
2021/07/01 10:32:40;;;;;;;2.53;0.88;;;;;;;;;;6093033;29;20075;-72
2021/07/01 10:35:42;;;;;;;4.60;1.00;;;;;;;;;;6090943;29;20131;-74
2021/07/01 10:38:45;;;;;;;3.10;0.82;;;;;;;;;;6090015;29;20466;-73
2021/07/01 10:42:00;;;;;;;6.35;1.00;;;;;;;;;;6085332;29;20099;-76
2021/07/01 10:45:09;;;;;;;1.77;0.80;;;;;;;;;;6086799;29;20060;-75
2021/07/01 10:48:15;;;;;;;1.52;0.82;;;;;;;;;;6087335;29;20067;-76
2021/07/01 10:51:17;;;;;;;2.75;0.80;;;;;;;;;;6086126;29;20056;-74
2021/07/01 10:54:19;;;;;;;3.67;0.80;;;;;;;;;;6089862;29;20576;-77
2021/07/01 10:57:21;;;;;;;5.43;1.10;;;;;;;;;;6088335;29;20055;-77
2021/07/01 11:00:37;;;;;;;3.20;1.02;;;;;;;;;;6083358;29;20482;-75
2021/07/01 11:03:40;;;;;;;2.72;1.50;;;;;;;;;;6089808;29;20063;-74
2021/07/01 11:06:43;;;;;;;4.65;0.90;;;;;;;;;;6085585;29;20040;-75
2021/07/01 11:09:46;;;;;;;2.95;0.90;;;;;;;;;;6076361;29;20989;-75
2021/07/01 11:12:48;;;;;;;1.17;0.75;;;;;;;;;;6088723;29;20044;-74
2021/07/01 11:16:08;;;;;;;1.23;0.50;;;;;;;;;;6085625;29;20080;-76
2021/07/01 11:19:13;;;;;;;1.00;0.55;;;;;;;;;;6088691;29;20103;-76
2021/07/01 11:22:15;;;;;;;1.13;0.80;;;;;;;;;;6090730;29;20095;-73
2021/07/01 11:25:28;;;;;;;0.60;0.57;;;;;;;;;;6088333;29;20532;-76
2021/07/01 11:28:30;;;;;;;1.95;0.50;;;;;;;;;;6091131;29;20089;-73
2021/07/01 11:31:39;;;;;;;;;;;;;;;;;;6089626;29;20096;-72
2021/07/01 11:34:43;;;;;;;1.33;0.47;;;;;;;;;;6093017;29;19930;-71
2021/07/01 11:37:44;;;;;;;0.70;0.50;;;;;;;;;;6082721;29;20139;-70
2021/07/01 11:40:46;;;;;;;1.13;0.40;;;;;;;;;;6095571;29;20040;-74
2021/07/01 11:43:48;;;;;;;0.47;0.35;;;;;;;;;;6091065;29;20059;-69
2021/07/01 11:46:50;;;;;;;2.28;0.50;;;;;;;;;;6100630;29;20047;-71
2021/07/01 11:49:54;;;;;;;1.50;0.45;;;;;;;;;;6091866;29;20053;-72
2021/07/01 11:52:55;;;;;;;1.50;0.55;;;;;;;;;;6103718;29;20192;-73
2021/07/01 11:55:59;;;;;;;1.65;0.73;;;;;;;;;;6093318;29;20493;-73
2021/07/01 11:59:01;;;;;;;0.75;0.40;;;;;;;;;;6088897;29;20052;-72
2021/07/01 12:02:04;;;;;;;0.40;0.40;;;;;;;;;;6088501;29;20048;-72
2021/07/01 12:05:09;;;;;;;1.30;0.50;;;;;;;;;;6099784;29;20416;-72
2021/07/01 12:08:11;;;;;;;0.82;0.55;;;;;;;;;;6095050;29;20751;-74
2021/07/01 12:11:13;;;;;;;3.40;0.50;;;;;;;;;;6097713;29;20084;-73
2021/07/01 12:14:32;;;;;;;3.10;0.50;;;;;;;;;;6092299;29;20052;-72
2021/07/01 12:17:51;;;;;;;9.70;1.30;;;;;;;;;;6095853;29;20131;-72
2021/07/01 12:20:55;;;;;;;0.50;0.50;;;;;;;;;;6087820;29;20048;-70
2021/07/01 12:23:58;;;;;;;5.47;0.60;;;;;;;;;;6089110;29;20048;-72
2021/07/01 12:26:59;;;;;;;1.17;0.55;;;;;;;;;;6087931;29;20052;-75
2021/07/01 12:30:01;;;;;;;0.95;0.50;;;;;;;;;;6102244;29;20042;-72
2021/07/01 12:33:30;;;;;;;2.78;0.60;;;;;;;;;;6082333;29;20587;-70
2021/07/01 12:36:34;;;;;;;1.05;0.50;;;;;;;;;;6092249;29;20139;-71
2021/07/01 12:39:39;;;;;;;1.60;0.50;;;;;;;;;;6091535;29;20214;-71
2021/07/01 12:42:41;;;;;;;1.00;0.50;;;;;;;;;;6088189;29;20052;-72
2021/07/01 12:45:43;;;;;;;3.53;0.47;;;;;;;;;;6094459;29;20075;-71
2021/07/01 12:48:44;;;;;;;1.27;0.73;;;;;;;;;;6092066;29;20076;-73
2021/07/01 12:51:49;;;;;;;2.35;0.63;;;;;;;;;;6085432;29;20056;-72
2021/07/01 12:54:58;;;;;;;0.70;0.25;;;;;;;;;;6088513;29;20203;-73
2021/07/01 12:57:59;;;;;;;1.98;0.63;;;;;;;;;;6091170;29;20700;-73
2021/07/01 13:01:02;;;;;;;5.72;0.90;;;;;;;;;;6094218;29;20099;-73
2021/07/01 13:04:04;;;;;;;2.60;0.68;;;;;;;;;;6091023;29;20059;-74
2021/07/01 13:07:08;;;;;;;4.25;1.10;;;;;;;;;;6086405;29;20396;-75
2021/07/01 13:10:11;;;;;;;2.15;1.17;;;;;;;;;;6091557;29;20449;-75
2021/07/01 13:13:13;;;;;;;4.50;0.90;;;;;;;;;;6096250;29;20138;-75
2021/07/01 13:16:14;;;;;;;2.60;1.30;;;;;;;;;;6091073;29;20528;-76
2021/07/01 13:19:19;;;;;;;2.10;0.80;;;;;;;;;;6089593;29;20475;-75
2021/07/01 13:22:24;;;;;;;3.80;0.73;;;;;;;;;;6086446;29;20523;-73
2021/07/01 13:25:27;;;;;;;2.78;0.70;;;;;;;;;;6089340;29;20071;-72
2021/07/01 13:28:29;;;;;;;4.07;0.70;;;;;;;;;;6088606;29;20056;-72
2021/07/01 13:31:30;;;;;;;9.98;0.98;;;;;;;;;;6082427;29;20413;-71
2021/07/01 13:34:33;;;;;;;3.08;0.63;;;;;;;;;;6088630;29;20131;-74
2021/07/01 13:37:36;;;;;;;5.05;0.85;;;;;;;;;;6087958;29;20151;-72
2021/07/01 13:40:38;;;;;;;3.17;0.85;;;;;;;;;;6089192;29;20705;-73
2021/07/01 13:43:40;;;;;;;;;;;;;;;;;;6082706;29;20420;-73
2021/07/01 13:46:41;;;;;;;6.13;0.95;;;;;;;;;;6084554;29;20005;-74
2021/07/01 13:49:43;;;;;;;2.17;0.70;;;;;;;;;;6085061;29;20139;-73
2021/07/01 13:52:47;;;;;;;1.05;0.55;;;;;;;;;;6088354;29;20539;-75
2021/07/01 13:55:50;;;;;;;4.45;0.88;;;;;;;;;;6093571;29;20048;-74
2021/07/01 13:58:52;;;;;;;8.02;0.73;;;;;;;;;;6088313;29;20044;-73
2021/07/01 14:01:54;;;;;;;0.67;0.50;;;;;;;;;;6090006;29;20070;-72
2021/07/01 14:04:56;;;;;;;6.57;1.23;;;;;;;;;;6094682;29;20095;-71
2021/07/01 14:07:59;;;;;;;2.13;0.68;;;;;;;;;;6096530;29;20059;-73
2021/07/01 14:11:09;;;;;;;3.30;0.82;;;;;;;;;;6100003;29;20138;-75
2021/07/01 14:14:11;;;;;;;4.78;0.70;;;;;;;;;;6101611;29;20212;-71
2021/07/01 14:17:14;;;;;;;0.93;0.52;;;;;;;;;;6099907;29;20054;-71
2021/07/01 14:20:16;;;;;;;3.25;0.70;;;;;;;;;;6092220;29;20449;-73
2021/07/01 14:23:21;;;;;;;3.92;0.63;;;;;;;;;;6098034;29;20411;-71
2021/07/01 14:26:22;;;;;;;2.28;0.60;;;;;;;;;;6091280;29;20167;-71
2021/07/01 14:29:28;;;;;;;3.03;0.80;;;;;;;;;;6093472;29;20139;-72
2021/07/01 14:32:33;;;;;;;1.75;0.65;;;;;;;;;;6076731;29;20055;-74
2021/07/01 14:35:38;;;;;;;1.77;0.60;;;;;;;;;;6091749;29;20107;-72
2021/07/01 14:38:43;;;;;;;2.05;0.60;;;;;;;;;;6094813;29;21160;-72
2021/07/01 14:41:46;;;;;;;1.17;0.45;;;;;;;;;;6087173;29;20072;-74
2021/07/01 14:44:47;;;;;;;;;;;;;;;;;;6094274;29;20084;-72
2021/07/01 14:47:49;;;;;;;2.55;0.45;;;;;;;;;;6088956;29;20047;-73
2021/07/01 14:50:52;;;;;;;1.15;0.70;;;;;;;;;;6091850;29;20465;-72
2021/07/01 14:54:14;;;;;;;2.10;0.50;;;;;;;;;;6090407;29;20099;-72
2021/07/01 14:57:17;;;;;;;1.20;0.53;;;;;;;;;;6090410;29;20062;-73
2021/07/01 15:00:18;;;;;;;1.40;0.63;;;;;;;;;;6094937;29;20494;-72
2021/07/01 15:03:23;;;;;;;1.38;0.43;;;;;;;;;;6090346;29;20579;-73
2021/07/01 15:06:32;;;;;;;0.57;0.50;;;;;;;;;;6086769;29;20113;-72
2021/07/01 15:09:46;;;;;;;2.35;0.68;;;;;;;;;;6092041;29;20172;-73
2021/07/01 15:12:56;;;;;;;1.17;0.50;;;;;;;;;;6091318;29;20526;-75
2021/07/01 15:15:57;;;;;;;0.98;0.50;;;;;;;;;;6092918;29;20052;-72
2021/07/01 15:18:59;;;;;;;0.60;0.60;;;;;;;;;;6090279;29;20746;-71
2021/07/01 15:22:00;;;;;;;0.85;0.52;;;;;;;;;;6092883;29;20045;-71
2021/07/01 15:25:05;;;;;;;3.80;0.60;;;;;;;;;;6090188;29;20120;-71
2021/07/01 15:28:06;;;;;;;1.67;0.52;;;;;;;;;;6092157;29;20139;-72
2021/07/01 15:31:08;;;;;;;4.57;0.80;;;;;;;;;;6086766;29;21756;-71
2021/07/01 15:34:10;;;;;;;1.83;0.60;;;;;;;;;;6083493;29;20048;-73
2021/07/01 15:37:12;;;;;;;2.75;0.50;;;;;;;;;;6090536;29;20044;-71
2021/07/01 15:40:19;;;;;;;1.13;0.40;;;;;;;;;;6095416;29;20048;-72
2021/07/01 15:43:24;;;;;;;2.45;0.70;;;;;;;;;;6091928;29;20138;-72
2021/07/01 15:46:26;;;;;;;1.20;0.40;;;;;;;;;;6092531;29;20094;-72
2021/07/01 15:49:27;;;;;;;2.50;0.82;;;;;;;;;;6091819;29;20151;-72
2021/07/01 15:52:29;;;;;;;3.38;0.60;;;;;;;;;;6095050;29;20168;-74
2021/07/01 15:55:32;;;;;;;2.85;0.60;;;;;;;;;;6094985;29;20052;-75
2021/07/01 15:58:34;;;;;;;12.70;5.18;;;;;;;;;;6107570;29;20135;-73
2021/07/01 16:01:36;;;;;;;6.97;4.30;;;;;;;;;;6101098;29;20056;-75
2021/07/01 16:04:39;;;;;;;3.77;1.00;;;;;;;;;;6100408;29;20095;-73
2021/07/01 16:07:42;;;;;;;1.52;0.50;;;;;;;;;;6106018;29;20469;-72
2021/07/01 16:10:45;;;;;;;13.48;1.05;;;;;;;;;;6102374;29;20713;-72
2021/07/01 16:13:47;;;;;;;1.42;0.60;;;;;;;;;;6104471;29;20507;-72
2021/07/01 16:16:49;;;;;;;2.45;0.70;;;;;;;;;;6091605;29;20100;-74
2021/07/01 16:19:51;;;;;;;2.42;0.52;;;;;;;;;;6092575;29;20131;-73
2021/07/01 16:22:54;;;;;;;1.08;0.70;;;;;;;;;;6100467;29;20072;-74
2021/07/01 16:25:58;;;;;;;4.80;0.95;;;;;;;;;;6104356;29;20419;-76
2021/07/01 16:29:00;;;;;;;0.63;0.50;;;;;;;;;;6103296;29;20095;-77
2021/07/01 16:32:01;;;;;;;1.98;0.77;;;;;;;;;;6093645;29;20130;-73
2021/07/01 16:35:03;;;;;;;1.48;0.60;;;;;;;;;;6095088;29;20115;-73
2021/07/01 16:38:06;;;;;;;7.95;1.35;;;;;;;;;;6098108;29;20171;-72
2021/07/01 16:41:10;;;;;;;1.10;0.52;;;;;;;;;;6100994;29;20055;-73
2021/07/01 16:44:12;;;;;;;2.42;0.60;;;;;;;;;;6098758;29;20103;-75
2021/07/01 16:47:14;;;;;;;2.60;0.40;;;;;;;;;;6091597;29;20078;-73
2021/07/01 16:50:17;;;;;;;4.13;0.90;;;;;;;;;;6099098;29;20143;-73
2021/07/01 16:53:20;;;;;;;2.63;0.65;;;;;;;;;;6094236;29;20179;-73
2021/07/01 16:56:24;;;;;;;3.20;0.50;;;;;;;;;;6099501;29;20131;-74
2021/07/01 16:59:28;;;;;;;1.67;0.55;;;;;;;;;;6098495;29;20071;-74
2021/07/01 17:02:29;;;;;;;7.05;0.70;;;;;;;;;;6094752;29;20123;-73
2021/07/01 17:05:32;;;;;;;1.23;0.35;;;;;;;;;;6090925;29;20198;-72
2021/07/01 17:08:35;;;;;;;1.48;0.30;;;;;;;;;;6103517;29;20036;-74
2021/07/01 17:11:37;;;;;;;;;;;;;;;;;;6094843;29;20099;-73
2021/07/01 17:14:40;;;;;;;1.03;0.50;;;;;;;;;;6087709;29;19931;-74
2021/07/01 17:17:43;;;;;;;2.88;0.60;;;;;;;;;;6090101;29;20567;-73
2021/07/01 17:20:48;;;;;;;3.97;0.60;;;;;;;;;;6096917;29;20052;-72
2021/07/01 17:23:53;;;;;;;2.25;0.68;;;;;;;;;;6097090;29;20531;-73
2021/07/01 17:26:58;;;;;;;1.05;0.60;;;;;;;;;;6090793;29;20745;-74
2021/07/01 17:29:59;;;;;;;0.95;0.50;;;;;;;;;;6092082;29;20047;-72
2021/07/01 17:33:02;;;;;;;2.83;0.45;;;;;;;;;;6097152;29;20180;-72
2021/07/01 17:36:04;;;;;;;;;;;;;;;;;;6098820;29;20744;-73
2021/07/01 17:39:05;;;;;;;0.93;0.63;;;;;;;;;;6099650;29;20714;-74
2021/07/01 17:42:08;;;;;;;3.03;0.52;;;;;;;;;;6092202;29;20132;-74
2021/07/01 17:45:10;;;;;;;;;;;;;;;;;;6093614;29;20448;-73
2021/07/01 17:48:12;;;;;;;6.53;0.90;;;;;;;;;;6102689;29;20009;-74
2021/07/01 17:51:13;;;;;;;2.60;0.50;;;;;;;;;;6093002;29;20139;-74
2021/07/01 17:54:15;;;;;;;2.95;0.77;;;;;;;;;;6091612;29;20147;-74
2021/07/01 17:57:19;;;;;;;3.97;1.93;;;;;;;;;;6091649;29;20107;-73
2021/07/01 18:00:20;;;;;;;1.50;0.70;;;;;;;;;;6084297;29;20056;-73
2021/07/01 18:03:22;;;;;;;2.45;0.70;;;;;;;;;;6092434;29;20056;-73
2021/07/01 18:06:23;;;;;;;2.63;0.40;;;;;;;;;;6084562;29;20131;-73
2021/07/01 18:09:31;;;;;;;3.47;0.70;;;;;;;;;;6098422;29;20225;-71
2021/07/01 18:12:34;;;;;;;2.85;0.63;;;;;;;;;;6086354;29;20053;-72
2021/07/01 18:15:35;;;;;;;1.42;0.50;;;;;;;;;;6095462;29;20196;-73